sensor_id;sensor_type;location;lat;lon;timestamp;pressure;altitude;pressure_sealevel;temperature;humidity
48563;BME280;34981;49.104;11.396;2024-01-10T00:01:06;96210.81;;;-7.38;100.00
48563;BME280;34981;49.104;11.396;2024-01-10T00:03:33;96212.00;;;-7.32;100.00
48563;BME280;34981;49.104;11.396;2024-01-10T00:06:01;96215.44;;;-7.32;100.00
48563;BME280;34981;49.104;11.396;2024-01-10T00:08:31;96211.78;;;-7.39;100.00
48563;BME280;34981;49.104;11.396;2024-01-10T00:10:58;96202.88;;;-7.28;100.00
48563;BME280;34981;49.104;11.396;2024-01-10T00:13:25;96206.97;;;-7.26;100.00
48563;BME280;34981;49.104;11.396;2024-01-10T00:15:54;96207.25;;;-7.29;100.00
48563;BME280;34981;49.104;11.396;2024-01-10T00:18:22;96206.31;;;-7.28;100.00
48563;BME280;34981;49.104;11.396;2024-01-10T00:20:51;96204.16;;;-7.32;100.00
48563;BME280;34981;49.104;11.396;2024-01-10T00:23:21;96205.28;;;-7.35;100.00
48563;BME280;34981;49.104;11.396;2024-01-10T00:25:48;96198.13;;;-7.33;100.00
48563;BME280;34981;49.104;11.396;2024-01-10T00:28:15;96193.03;;;-7.34;100.00
48563;BME280;34981;49.104;11.396;2024-01-10T00:30:45;96198.88;;;-7.40;100.00
48563;BME280;34981;49.104;11.396;2024-01-10T00:33:15;96198.56;;;-7.37;100.00
48563;BME280;34981;49.104;11.396;2024-01-10T00:35:42;96199.22;;;-7.35;100.00
48563;BME280;34981;49.104;11.396;2024-01-10T00:38:10;96188.94;;;-7.37;100.00
48563;BME280;34981;49.104;11.396;2024-01-10T00:40:37;96192.00;;;-7.41;100.00
48563;BME280;34981;49.104;11.396;2024-01-10T00:43:04;96184.19;;;-7.41;100.00
48563;BME280;34981;49.104;11.396;2024-01-10T00:45:31;96179.16;;;-7.35;100.00
48563;BME280;34981;49.104;11.396;2024-01-10T00:47:58;96184.38;;;-7.35;100.00
48563;BME280;34981;49.104;11.396;2024-01-10T00:50:26;96182.88;;;-7.37;100.00
48563;BME280;34981;49.104;11.396;2024-01-10T00:52:53;96179.16;;;-7.35;100.00
48563;BME280;34981;49.104;11.396;2024-01-10T00:55:21;96176.88;;;-7.38;100.00
48563;BME280;34981;49.104;11.396;2024-01-10T00:57:48;96182.38;;;-7.41;100.00
48563;BME280;34981;49.104;11.396;2024-01-10T01:00:15;96183.06;;;-7.39;100.00
48563;BME280;34981;49.104;11.396;2024-01-10T01:02:42;96188.63;;;-7.34;100.00
48563;BME280;34981;49.104;11.396;2024-01-10T01:05:09;96184.03;;;-7.40;100.00
48563;BME280;34981;49.104;11.396;2024-01-10T01:07:37;96175.22;;;-7.39;100.00
48563;BME280;34981;49.104;11.396;2024-01-10T01:10:05;96179.63;;;-7.39;100.00
48563;BME280;34981;49.104;11.396;2024-01-10T01:12:32;96182.53;;;-7.42;100.00
48563;BME280;34981;49.104;11.396;2024-01-10T01:14:59;96177.03;;;-7.39;100.00
48563;BME280;34981;49.104;11.396;2024-01-10T01:17:26;96177.16;;;-7.41;100.00
48563;BME280;34981;49.104;11.396;2024-01-10T01:19:54;96178.81;;;-7.40;100.00
48563;BME280;34981;49.104;11.396;2024-01-10T01:22:21;96183.50;;;-7.43;100.00
48563;BME280;34981;49.104;11.396;2024-01-10T01:24:48;96178.13;;;-7.42;100.00
48563;BME280;34981;49.104;11.396;2024-01-10T01:27:15;96185.47;;;-7.45;100.00
48563;BME280;34981;49.104;11.396;2024-01-10T01:29:42;96177.47;;;-7.44;100.00
48563;BME280;34981;49.104;11.396;2024-01-10T01:32:10;96183.97;;;-7.48;100.00
48563;BME280;34981;49.104;11.396;2024-01-10T01:34:37;96176.63;;;-7.44;100.00
48563;BME280;34981;49.104;11.396;2024-01-10T01:37:04;96176.97;;;-7.48;100.00
48563;BME280;34981;49.104;11.396;2024-01-10T01:39:32;96177.31;;;-7.42;100.00
48563;BME280;34981;49.104;11.396;2024-01-10T01:41:59;96178.13;;;-7.42;100.00
48563;BME280;34981;49.104;11.396;2024-01-10T01:44:26;96186.06;;;-7.52;100.00
48563;BME280;34981;49.104;11.396;2024-01-10T01:46:53;96173.69;;;-7.50;100.00
48563;BME280;34981;49.104;11.396;2024-01-10T01:49:21;96183.00;;;-7.47;100.00
48563;BME280;34981;49.104;11.396;2024-01-10T01:51:48;96183.00;;;-7.47;100.00
48563;BME280;34981;49.104;11.396;2024-01-10T01:54:15;96176.97;;;-7.48;100.00
48563;BME280;34981;49.104;11.396;2024-01-10T01:56:43;96166.06;;;-7.43;100.00
48563;BME280;34981;49.104;11.396;2024-01-10T01:59:10;96175.47;;;-7.50;100.00
48563;BME280;34981;49.104;11.396;2024-01-10T02:01:38;96165.38;;;-7.45;100.00
48563;BME280;34981;49.104;11.396;2024-01-10T02:04:06;96169.00;;;-7.46;100.00
48563;BME280;34981;49.104;11.396;2024-01-10T02:06:34;96168.81;;;-7.44;100.00
48563;BME280;34981;49.104;11.396;2024-01-10T02:09:01;96169.63;;;-7.44;100.00
48563;BME280;34981;49.104;11.396;2024-01-10T02:11:30;96163.91;;;-7.48;100.00
48563;BME280;34981;49.104;11.396;2024-01-10T02:13:57;96167.63;;;-7.50;100.00
48563;BME280;34981;49.104;11.396;2024-01-10T02:16:25;96156.38;;;-7.51;100.00
48563;BME280;34981;49.104;11.396;2024-01-10T02:18:52;96156.69;;;-7.54;100.00
48563;BME280;34981;49.104;11.396;2024-01-10T02:21:22;96149.50;;;-7.52;100.00
48563;BME280;34981;49.104;11.396;2024-01-10T02:23:49;96158.50;;;-7.54;100.00
48563;BME280;34981;49.104;11.396;2024-01-10T02:26:19;96141.53;;;-7.50;100.00
48563;BME280;34981;49.104;11.396;2024-01-10T02:28:46;96149.88;;;-7.47;100.00
48563;BME280;34981;49.104;11.396;2024-01-10T02:31:13;96144.28;;;-7.52;100.00
48563;BME280;34981;49.104;11.396;2024-01-10T02:33:40;96139.88;;;-7.51;100.00
48563;BME280;34981;49.104;11.396;2024-01-10T02:36:08;96141.22;;;-7.47;100.00
48563;BME280;34981;49.104;11.396;2024-01-10T02:38:35;96142.69;;;-7.53;100.00
48563;BME280;34981;49.104;11.396;2024-01-10T02:41:02;96141.84;;;-7.53;100.00
48563;BME280;34981;49.104;11.396;2024-01-10T02:43:30;96130.78;;;-7.47;100.00
48563;BME280;34981;49.104;11.396;2024-01-10T02:45:57;96129.97;;;-7.48;100.00
48563;BME280;34981;49.104;11.396;2024-01-10T02:48:25;96120.34;;;-7.47;100.00
48563;BME280;34981;49.104;11.396;2024-01-10T02:50:53;96122.63;;;-7.44;100.00
48563;BME280;34981;49.104;11.396;2024-01-10T02:53:21;96129.66;;;-7.44;100.00
48563;BME280;34981;49.104;11.396;2024-01-10T02:55:49;96128.69;;;-7.43;100.00
48563;BME280;34981;49.104;11.396;2024-01-10T02:58:17;96121.50;;;-7.41;100.00
48563;BME280;34981;49.104;11.396;2024-01-10T03:00:44;96127.38;;;-7.48;100.00
48563;BME280;34981;49.104;11.396;2024-01-10T03:03:11;96120.97;;;-7.53;100.00
48563;BME280;34981;49.104;11.396;2024-01-10T03:05:38;96117.38;;;-7.52;100.00
48563;BME280;34981;49.104;11.396;2024-01-10T03:08:06;96121.78;;;-7.53;100.00
48563;BME280;34981;49.104;11.396;2024-01-10T03:10:34;96126.50;;;-7.56;100.00
48563;BME280;34981;49.104;11.396;2024-01-10T03:13:01;96132.38;;;-7.54;100.00
48563;BME280;34981;49.104;11.396;2024-01-10T03:15:28;96128.13;;;-7.55;100.00
48563;BME280;34981;49.104;11.396;2024-01-10T03:17:55;96120.66;;;-7.50;100.00
48563;BME280;34981;49.104;11.396;2024-01-10T03:20:23;96115.13;;;-7.47;100.00
48563;BME280;34981;49.104;11.396;2024-01-10T03:22:50;96117.06;;;-7.49;100.00
48563;BME280;34981;49.104;11.396;2024-01-10T03:25:17;96108.25;;;-7.48;100.00
48563;BME280;34981;49.104;11.396;2024-01-10T03:27:44;96112.38;;;-7.45;100.00
48563;BME280;34981;49.104;11.396;2024-01-10T03:30:11;96112.47;;;-7.55;100.00
48563;BME280;34981;49.104;11.396;2024-01-10T03:32:39;96109.34;;;-7.59;100.00
48563;BME280;34981;49.104;11.396;2024-01-10T03:35:07;96104.78;;;-7.57;100.00
48563;BME280;34981;49.104;11.396;2024-01-10T03:37:35;96103.97;;;-7.57;100.00
48563;BME280;34981;49.104;11.396;2024-01-10T03:40:02;96099.88;;;-7.60;100.00
48563;BME280;34981;49.104;11.396;2024-01-10T03:42:30;96097.44;;;-7.61;100.00
48563;BME280;34981;49.104;11.396;2024-01-10T03:44:57;96104.63;;;-7.55;100.00
48563;BME280;34981;49.104;11.396;2024-01-10T03:47:24;96102.84;;;-7.55;100.00
48563;BME280;34981;49.104;11.396;2024-01-10T03:49:51;96100.03;;;-7.61;100.00
48563;BME280;34981;49.104;11.396;2024-01-10T03:52:19;96094.50;;;-7.58;100.00
48563;BME280;34981;49.104;11.396;2024-01-10T03:54:46;96102.28;;;-7.66;100.00
48563;BME280;34981;49.104;11.396;2024-01-10T03:57:14;96083.84;;;-7.65;100.00
48563;BME280;34981;49.104;11.396;2024-01-10T03:59:41;96088.78;;;-7.62;100.00
48563;BME280;34981;49.104;11.396;2024-01-10T04:02:08;96089.59;;;-7.61;100.00
48563;BME280;34981;49.104;11.396;2024-01-10T04:04:36;96081.88;;;-7.71;100.00
48563;BME280;34981;49.104;11.396;2024-01-10T04:07:04;96083.34;;;-7.68;100.00
48563;BME280;34981;49.104;11.396;2024-01-10T04:09:31;96074.50;;;-7.75;100.00
48563;BME280;34981;49.104;11.396;2024-01-10T04:11:58;96076.78;;;-7.72;100.00
48563;BME280;34981;49.104;11.396;2024-01-10T04:14:25;96080.38;;;-7.73;100.00
48563;BME280;34981;49.104;11.396;2024-01-10T04:16:53;96074.31;;;-7.82;100.00
48563;BME280;34981;49.104;11.396;2024-01-10T04:19:20;96075.72;;;-7.88;100.00
48563;BME280;34981;49.104;11.396;2024-01-10T04:21:48;96066.91;;;-7.87;100.00
48563;BME280;34981;49.104;11.396;2024-01-10T04:24:15;96069.25;;;-7.83;100.00
48563;BME280;34981;49.104;11.396;2024-01-10T04:26:42;96066.63;;;-7.83;100.00
48563;BME280;34981;49.104;11.396;2024-01-10T04:29:09;96058.66;;;-7.82;100.00
48563;BME280;34981;49.104;11.396;2024-01-10T04:31:36;96057.97;;;-7.84;100.00
48563;BME280;34981;49.104;11.396;2024-01-10T04:34:04;96061.69;;;-7.87;100.00
48563;BME280;34981;49.104;11.396;2024-01-10T04:36:31;96068.28;;;-7.82;100.00
48563;BME280;34981;49.104;11.396;2024-01-10T04:38:58;96051.94;;;-7.84;100.00
48563;BME280;34981;49.104;11.396;2024-01-10T04:41:25;96056.81;;;-7.90;100.00
48563;BME280;34981;49.104;11.396;2024-01-10T04:43:52;96049.34;;;-7.84;100.00
48563;BME280;34981;49.104;11.396;2024-01-10T04:46:20;96048.66;;;-7.87;100.00
48563;BME280;34981;49.104;11.396;2024-01-10T04:48:47;96056.81;;;-7.90;100.00
48563;BME280;34981;49.104;11.396;2024-01-10T04:51:14;96045.69;;;-7.92;100.00
48563;BME280;34981;49.104;11.396;2024-01-10T04:53:41;96043.91;;;-7.91;100.00
48563;BME280;34981;49.104;11.396;2024-01-10T04:56:08;96043.91;;;-7.91;100.00
48563;BME280;34981;49.104;11.396;2024-01-10T04:58:36;96045.03;;;-7.94;100.00
48563;BME280;34981;49.104;11.396;2024-01-10T05:01:03;96046.25;;;-8.06;100.00
48563;BME280;34981;49.104;11.396;2024-01-10T05:03:31;96044.00;;;-8.01;100.00
48563;BME280;34981;49.104;11.396;2024-01-10T05:05:58;96041.88;;;-8.05;100.00
48563;BME280;34981;49.104;11.396;2024-01-10T05:08:26;96041.53;;;-8.02;100.00
48563;BME280;34981;49.104;11.396;2024-01-10T05:10:53;96041.09;;;-7.98;100.00
48563;BME280;34981;49.104;11.396;2024-01-10T05:13:20;96035.84;;;-8.06;100.00
48563;BME280;34981;49.104;11.396;2024-01-10T05:15:47;96036.94;;;-8.08;100.00
48563;BME280;34981;49.104;11.396;2024-01-10T05:18:15;96035.84;;;-8.06;100.00
48563;BME280;34981;49.104;11.396;2024-01-10T05:20:42;96037.75;;;-8.08;100.00
48563;BME280;34981;49.104;11.396;2024-01-10T05:23:10;96027.88;;;-8.04;100.00
48563;BME280;34981;49.104;11.396;2024-01-10T05:25:37;96039.34;;;-8.15;100.00
48563;BME280;34981;49.104;11.396;2024-01-10T05:28:04;96036.59;;;-8.13;100.00
48563;BME280;34981;49.104;11.396;2024-01-10T05:30:32;96038.31;;;-8.22;100.00
48563;BME280;34981;49.104;11.396;2024-01-10T05:32:59;96042.56;;;-8.21;100.00
48563;BME280;34981;49.104;11.396;2024-01-10T05:35:26;96030.22;;;-8.19;100.00
48563;BME280;34981;49.104;11.396;2024-01-10T05:37:54;96036.81;;;-8.25;100.00
48563;BME280;34981;49.104;11.396;2024-01-10T05:40:21;96039.00;;;-8.20;100.00
48563;BME280;34981;49.104;11.396;2024-01-10T05:42:48;96039.28;;;-8.23;100.00
48563;BME280;34981;49.104;11.396;2024-01-10T05:45:16;96041.22;;;-8.25;100.00
48563;BME280;34981;49.104;11.396;2024-01-10T05:47:45;96040.09;;;-8.22;100.00
48563;BME280;34981;49.104;11.396;2024-01-10T05:50:12;96050.25;;;-8.19;100.00
48563;BME280;34981;49.104;11.396;2024-01-10T05:52:39;96040.63;;;-8.19;100.00
48563;BME280;34981;49.104;11.396;2024-01-10T05:55:07;96043.25;;;-8.19;100.00
48563;BME280;34981;49.104;11.396;2024-01-10T05:57:36;96037.66;;;-8.24;100.00
48563;BME280;34981;49.104;11.396;2024-01-10T06:00:04;96037.34;;;-8.21;100.00
48563;BME280;34981;49.104;11.396;2024-01-10T06:02:32;96048.41;;;-8.27;100.00
48563;BME280;34981;49.104;11.396;2024-01-10T06:04:59;96037.97;;;-8.27;100.00
48563;BME280;34981;49.104;11.396;2024-01-10T06:07:29;96046.81;;;-8.20;100.00
48563;BME280;34981;49.104;11.396;2024-01-10T06:09:56;96061.09;;;-8.24;100.00
48563;BME280;34981;49.104;11.396;2024-01-10T06:12:23;96056.50;;;-8.30;100.00
48563;BME280;34981;49.104;11.396;2024-01-10T06:14:50;96051.16;;;-8.29;100.00
48563;BME280;34981;49.104;11.396;2024-01-10T06:17:17;96052.28;;;-8.31;100.00
48563;BME280;34981;49.104;11.396;2024-01-10T06:19:46;96050.31;;;-8.29;100.00
48563;BME280;34981;49.104;11.396;2024-01-10T06:22:13;96043.19;;;-8.27;100.00
48563;BME280;34981;49.104;11.396;2024-01-10T06:24:40;96042.84;;;-8.24;100.00
48563;BME280;34981;49.104;11.396;2024-01-10T06:27:08;96047.91;;;-8.31;100.00
48563;BME280;34981;49.104;11.396;2024-01-10T06:29:35;96041.84;;;-8.31;100.00
48563;BME280;34981;49.104;11.396;2024-01-10T06:32:03;96044.94;;;-8.36;100.00
48563;BME280;34981;49.104;11.396;2024-01-10T06:34:31;96043.00;;;-8.34;100.00
48563;BME280;34981;49.104;11.396;2024-01-10T06:36:59;96050.00;;;-8.34;100.00
48563;BME280;34981;49.104;11.396;2024-01-10T06:39:26;96052.59;;;-8.34;100.00
48563;BME280;34981;49.104;11.396;2024-01-10T06:41:54;96060.50;;;-8.44;100.00
48563;BME280;34981;49.104;11.396;2024-01-10T06:44:22;96066.41;;;-8.42;100.00
48563;BME280;34981;49.104;11.396;2024-01-10T06:46:49;96066.91;;;-8.38;100.00
48563;BME280;34981;49.104;11.396;2024-01-10T06:49:16;96065.94;;;-8.37;100.00
48563;BME280;34981;49.104;11.396;2024-01-10T06:51:43;96058.56;;;-8.42;100.00
48563;BME280;34981;49.104;11.396;2024-01-10T06:54:10;96055.44;;;-8.45;100.00
48563;BME280;34981;49.104;11.396;2024-01-10T06:56:37;96060.97;;;-8.48;100.00
48563;BME280;34981;49.104;11.396;2024-01-10T06:59:05;96061.19;;;-8.42;100.00
48563;BME280;34981;49.104;11.396;2024-01-10T07:01:32;96067.22;;;-8.41;100.00
48563;BME280;34981;49.104;11.396;2024-01-10T07:03:59;96068.19;;;-8.42;100.00
48563;BME280;34981;49.104;11.396;2024-01-10T07:06:26;96063.94;;;-8.43;100.00
48563;BME280;34981;49.104;11.396;2024-01-10T07:08:53;96069.81;;;-8.41;100.00
48563;BME280;34981;49.104;11.396;2024-01-10T07:11:20;96069.16;;;-8.43;100.00
48563;BME280;34981;49.104;11.396;2024-01-10T07:13:48;96071.59;;;-8.42;100.00
48563;BME280;34981;49.104;11.396;2024-01-10T07:16:15;96079.34;;;-8.50;100.00
48563;BME280;34981;49.104;11.396;2024-01-10T07:18:43;96077.78;;;-8.43;100.00
48563;BME280;34981;49.104;11.396;2024-01-10T07:21:10;96074.72;;;-8.38;100.00
48563;BME280;34981;49.104;11.396;2024-01-10T07:23:37;96073.25;;;-8.41;100.00
48563;BME280;34981;49.104;11.396;2024-01-10T07:26:12;96076.34;;;-8.37;100.00
48563;BME280;34981;49.104;11.396;2024-01-10T07:28:39;96081.13;;;-8.33;100.00
48563;BME280;34981;49.104;11.396;2024-01-10T07:31:06;96075.44;;;-8.28;100.00
48563;BME280;34981;49.104;11.396;2024-01-10T07:33:34;96082.28;;;-8.27;100.00
48563;BME280;34981;49.104;11.396;2024-01-10T07:36:01;96077.72;;;-8.25;100.00
48563;BME280;34981;49.104;11.396;2024-01-10T07:38:29;96079.06;;;-8.21;100.00
48563;BME280;34981;49.104;11.396;2024-01-10T07:40:56;96081.22;;;-8.16;100.00
48563;BME280;34981;49.104;11.396;2024-01-10T07:43:23;96081.75;;;-8.13;100.00
48563;BME280;34981;49.104;11.396;2024-01-10T07:45:50;96080.03;;;-8.04;100.00
48563;BME280;34981;49.104;11.396;2024-01-10T07:48:17;96080.53;;;-8.01;100.00
48563;BME280;34981;49.104;11.396;2024-01-10T07:50:45;96085.13;;;-7.95;100.00
48563;BME280;34981;49.104;11.396;2024-01-10T07:53:12;96085.84;;;-7.84;100.00
48563;BME280;34981;49.104;11.396;2024-01-10T07:55:40;96089.16;;;-7.82;100.00
48563;BME280;34981;49.104;11.396;2024-01-10T07:58:07;96085.28;;;-7.70;100.00
48563;BME280;34981;49.104;11.396;2024-01-10T08:00:34;96078.50;;;-7.63;100.00
48563;BME280;34981;49.104;11.396;2024-01-10T08:03:02;96081.63;;;-7.60;100.00
48563;BME280;34981;49.104;11.396;2024-01-10T08:05:29;96078.22;;;-7.52;100.00
48563;BME280;34981;49.104;11.396;2024-01-10T08:07:57;96082.88;;;-7.38;100.00
48563;BME280;34981;49.104;11.396;2024-01-10T08:10:25;96082.53;;;-7.35;100.00
48563;BME280;34981;49.104;11.396;2024-01-10T08:12:54;96092.88;;;-7.25;100.00
48563;BME280;34981;49.104;11.396;2024-01-10T08:15:21;96090.50;;;-7.11;100.00
48563;BME280;34981;49.104;11.396;2024-01-10T08:17:48;96092.44;;;-7.13;100.00
48563;BME280;34981;49.104;11.396;2024-01-10T08:20:16;96096.34;;;-7.17;100.00
48563;BME280;34981;49.104;11.396;2024-01-10T08:22:48;96100.00;;;-7.01;100.00
48563;BME280;34981;49.104;11.396;2024-01-10T08:25:15;96093.84;;;-6.84;100.00
48563;BME280;34981;49.104;11.396;2024-01-10T08:27:43;96095.34;;;-6.74;100.00
48563;BME280;34981;49.104;11.396;2024-01-10T08:30:12;96101.22;;;-6.72;100.00
48563;BME280;34981;49.104;11.396;2024-01-10T08:32:39;96100.59;;;-6.74;100.00
48563;BME280;34981;49.104;11.396;2024-01-10T08:35:07;96107.78;;;-6.68;100.00
48563;BME280;34981;49.104;11.396;2024-01-10T08:37:36;96109.59;;;-6.60;100.00
48563;BME280;34981;49.104;11.396;2024-01-10T08:40:04;96120.22;;;-6.53;100.00
48563;BME280;34981;49.104;11.396;2024-01-10T08:42:37;96110.78;;;-6.38;100.00
48563;BME280;34981;49.104;11.396;2024-01-10T08:45:05;96114.88;;;-6.44;100.00
48563;BME280;34981;49.104;11.396;2024-01-10T08:47:32;96119.78;;;-6.33;100.00
48563;BME280;34981;49.104;11.396;2024-01-10T08:50:00;96116.34;;;-6.33;100.00
48563;BME280;34981;49.104;11.396;2024-01-10T08:52:27;96113.44;;;-6.22;100.00
48563;BME280;34981;49.104;11.396;2024-01-10T08:54:55;96119.81;;;-6.08;100.00
48563;BME280;34981;49.104;11.396;2024-01-10T08:57:23;96108.16;;;-5.81;100.00
48563;BME280;34981;49.104;11.396;2024-01-10T08:59:50;96114.72;;;-5.85;100.00
48563;BME280;34981;49.104;11.396;2024-01-10T09:02:17;96117.50;;;-5.87;100.00
48563;BME280;34981;49.104;11.396;2024-01-10T09:04:45;96118.94;;;-5.76;100.00
48563;BME280;34981;49.104;11.396;2024-01-10T09:07:12;96118.78;;;-5.59;100.00
48563;BME280;34981;49.104;11.396;2024-01-10T09:09:39;96117.16;;;-5.84;100.00
48563;BME280;34981;49.104;11.396;2024-01-10T09:12:06;96119.75;;;-5.60;100.00
48563;BME280;34981;49.104;11.396;2024-01-10T09:14:33;96114.66;;;-5.45;100.00
48563;BME280;34981;49.104;11.396;2024-01-10T09:17:00;96112.47;;;-5.25;100.00
48563;BME280;34981;49.104;11.396;2024-01-10T09:19:30;96119.06;;;-5.37;100.00
48563;BME280;34981;49.104;11.396;2024-01-10T09:22:00;96116.44;;;-5.37;100.00
48563;BME280;34981;49.104;11.396;2024-01-10T09:24:27;96120.84;;;-5.30;100.00
48563;BME280;34981;49.104;11.396;2024-01-10T09:26:56;96129.84;;;-5.32;100.00
48563;BME280;34981;49.104;11.396;2024-01-10T09:29:24;96123.31;;;-5.28;100.00
48563;BME280;34981;49.104;11.396;2024-01-10T09:31:53;96117.06;;;-5.19;100.00
48563;BME280;34981;49.104;11.396;2024-01-10T09:34:20;96120.28;;;-5.09;100.00
48563;BME280;34981;49.104;11.396;2024-01-10T09:36:48;96125.38;;;-5.07;100.00
48563;BME280;34981;49.104;11.396;2024-01-10T09:39:15;96131.00;;;-5.27;100.00
48563;BME280;34981;49.104;11.396;2024-01-10T09:41:47;96119.75;;;-4.96;100.00
48563;BME280;34981;49.104;11.396;2024-01-10T09:44:19;96130.47;;;-5.14;100.00
48563;BME280;34981;49.104;11.396;2024-01-10T09:46:52;96136.03;;;-5.17;100.00
48563;BME280;34981;49.104;11.396;2024-01-10T09:49:19;96136.63;;;-4.91;100.00
48563;BME280;34981;49.104;11.396;2024-01-10T09:51:53;96125.81;;;-4.96;100.00
48563;BME280;34981;49.104;11.396;2024-01-10T09:54:20;96128.19;;;-4.70;100.00
48563;BME280;34981;49.104;11.396;2024-01-10T09:56:48;96123.28;;;-4.73;100.00
48563;BME280;34981;49.104;11.396;2024-01-10T09:59:15;96128.06;;;-4.77;100.00
48563;BME280;34981;49.104;11.396;2024-01-10T10:01:42;96126.94;;;-4.51;100.00
48563;BME280;34981;49.104;11.396;2024-01-10T10:04:11;96122.22;;;-4.56;100.00
48563;BME280;34981;49.104;11.396;2024-01-10T10:06:38;96124.00;;;-4.56;100.00
48563;BME280;34981;49.104;11.396;2024-01-10T10:09:07;96134.63;;;-4.50;100.00
48563;BME280;34981;49.104;11.396;2024-01-10T10:11:34;96136.06;;;-4.39;100.00
48563;BME280;34981;49.104;11.396;2024-01-10T10:14:15;96125.16;;;-4.28;100.00
48563;BME280;34981;49.104;11.396;2024-01-10T10:16:43;96116.38;;;-4.12;100.00
48563;BME280;34981;49.104;11.396;2024-01-10T10:19:10;96129.09;;;-4.24;100.00
48563;BME280;34981;49.104;11.396;2024-01-10T10:21:43;96124.50;;;-4.30;100.00
48563;BME280;34981;49.104;11.396;2024-01-10T10:24:10;96132.25;;;-4.37;100.00
48563;BME280;34981;49.104;11.396;2024-01-10T10:26:41;96129.75;;;-4.30;100.00
48563;BME280;34981;49.104;11.396;2024-01-10T10:29:09;96129.22;;;-4.17;100.00
48563;BME280;34981;49.104;11.396;2024-01-10T10:31:36;96123.16;;;-4.18;100.00
48563;BME280;34981;49.104;11.396;2024-01-10T10:34:04;96131.41;;;-4.06;100.00
48563;BME280;34981;49.104;11.396;2024-01-10T10:36:31;96130.72;;;-4.00;100.00
48563;BME280;34981;49.104;11.396;2024-01-10T10:38:59;96133.06;;;-4.05;100.00
48563;BME280;34981;49.104;11.396;2024-01-10T10:41:27;96126.59;;;-3.95;100.00
48563;BME280;34981;49.104;11.396;2024-01-10T10:43:56;96117.19;;;-3.89;100.00
48563;BME280;34981;49.104;11.396;2024-01-10T10:46:23;96120.22;;;-3.77;100.00
48563;BME280;34981;49.104;11.396;2024-01-10T10:48:55;96115.31;;;-3.80;100.00
48563;BME280;34981;49.104;11.396;2024-01-10T10:51:28;96114.63;;;-3.74;100.00
48563;BME280;34981;49.104;11.396;2024-01-10T10:53:59;96118.16;;;-3.67;100.00
48563;BME280;34981;49.104;11.396;2024-01-10T10:56:29;96126.50;;;-3.86;100.00
48563;BME280;34981;49.104;11.396;2024-01-10T10:58:57;96129.06;;;-3.78;100.00
48563;BME280;34981;49.104;11.396;2024-01-10T11:01:26;96127.03;;;-3.68;100.00
48563;BME280;34981;49.104;11.396;2024-01-10T11:03:54;96116.34;;;-3.67;100.00
48563;BME280;34981;49.104;11.396;2024-01-10T11:06:21;96114.69;;;-3.45;100.00
48563;BME280;34981;49.104;11.396;2024-01-10T11:08:50;96112.31;;;-3.40;100.00
48563;BME280;34981;49.104;11.396;2024-01-10T11:17:13;96108.34;;;-3.21;100.00
48563;BME280;34981;49.104;11.396;2024-01-10T11:24:59;96108.16;;;-3.20;100.00
48563;BME280;34981;49.104;11.396;2024-01-10T11:27:29;96111.28;;;-3.01;100.00
48563;BME280;34981;49.104;11.396;2024-01-10T11:29:57;96106.75;;;-2.93;100.00
48563;BME280;34981;49.104;11.396;2024-01-10T11:32:25;96099.53;;;-2.84;100.00
48563;BME280;34981;49.104;11.396;2024-01-10T11:34:54;96098.75;;;-2.99;100.00
48563;BME280;34981;49.104;11.396;2024-01-10T11:37:38;96099.66;;;-2.92;100.00
48563;BME280;34981;49.104;11.396;2024-01-10T11:40:08;96100.03;;;-2.95;100.00
48563;BME280;34981;49.104;11.396;2024-01-10T11:42:42;96092.47;;;-3.13;100.00
48563;BME280;34981;49.104;11.396;2024-01-10T11:45:10;96085.88;;;-2.94;100.00
48563;BME280;34981;49.104;11.396;2024-01-10T11:47:43;96083.88;;;-2.92;100.00
48563;BME280;34981;49.104;11.396;2024-01-10T11:50:10;96098.38;;;-2.96;100.00
48563;BME280;34981;49.104;11.396;2024-01-10T11:52:45;96094.94;;;-3.11;100.00
48563;BME280;34981;49.104;11.396;2024-01-10T11:55:31;96089.22;;;-2.86;100.00
48563;BME280;34981;49.104;11.396;2024-01-10T11:58:08;96089.66;;;-2.82;100.00
48563;BME280;34981;49.104;11.396;2024-01-10T12:00:37;96090.13;;;-2.79;100.00
48563;BME280;34981;49.104;11.396;2024-01-10T12:03:04;96087.06;;;-2.97;100.00
48563;BME280;34981;49.104;11.396;2024-01-10T12:05:31;96089.78;;;-3.05;100.00
48563;BME280;34981;49.104;11.396;2024-01-10T12:07:59;96074.63;;;-2.88;100.00
48563;BME280;34981;49.104;11.396;2024-01-10T12:10:26;96079.03;;;-2.74;100.00
48563;BME280;34981;49.104;11.396;2024-01-10T12:12:54;96089.59;;;-2.89;100.00
48563;BME280;34981;49.104;11.396;2024-01-10T12:15:21;96084.16;;;-2.87;100.00
48563;BME280;34981;49.104;11.396;2024-01-10T12:17:48;96085.88;;;-2.94;100.00
48563;BME280;34981;49.104;11.396;2024-01-10T12:20:17;96090.59;;;-2.90;100.00
48563;BME280;34981;49.104;11.396;2024-01-10T12:22:45;96079.59;;;-2.79;100.00
48563;BME280;34981;49.104;11.396;2024-01-10T12:25:12;96091.22;;;-2.88;100.00
48563;BME280;34981;49.104;11.396;2024-01-10T12:27:39;96093.47;;;-2.99;100.00
48563;BME280;34981;49.104;11.396;2024-01-10T12:30:07;96084.66;;;-2.77;100.00
48563;BME280;34981;49.104;11.396;2024-01-10T12:32:34;96082.56;;;-2.67;100.00
48563;BME280;34981;49.104;11.396;2024-01-10T12:35:02;96083.09;;;-2.57;100.00
48563;BME280;34981;49.104;11.396;2024-01-10T12:37:30;96082.22;;;-2.64;100.00
48563;BME280;34981;49.104;11.396;2024-01-10T12:39:58;96082.66;;;-2.60;100.00
48563;BME280;34981;49.104;11.396;2024-01-10T12:42:26;96078.09;;;-2.52;100.00
48563;BME280;34981;49.104;11.396;2024-01-10T12:44:53;96085.03;;;-2.65;100.00
48563;BME280;34981;49.104;11.396;2024-01-10T12:47:21;96086.84;;;-2.81;100.00
48563;BME280;34981;49.104;11.396;2024-01-10T12:49:50;96090.28;;;-2.65;100.00
48563;BME280;34981;49.104;11.396;2024-01-10T12:52:17;96084.03;;;-2.64;100.00
48563;BME280;34981;49.104;11.396;2024-01-10T12:54:50;96081.56;;;-2.66;100.00